Time;durP1;ratioP1;P1;durP2;ratioP2;P2;SDS_P1;SDS_P2;PMS_P1;PMS_P2;Temp;Humidity;BMP_temperature;BMP_pressure;BME280_temperature;BME280_humidity;BME280_pressure;Samples;Min_cycle;Max_cycle;Signal;HPM_P1;HPM_P2
2021/01/12 00:02:00;;;;;;;43.15;23.52;;;4.70;99.90;;;;;;5099594;28;20204;-84
2021/01/12 00:04:26;;;;;;;32.90;17.75;;;4.70;99.90;;;;;;5099802;28;20219;-85
2021/01/12 00:06:52;;;;;;;40.05;25.48;;;4.70;99.90;;;;;;5099184;28;20193;-86
2021/01/12 00:09:19;;;;;;;36.63;23.58;;;4.70;99.90;;;;;;5099658;28;20209;-84
2021/01/12 00:11:45;;;;;;;40.08;23.42;;;4.70;99.90;;;;;;5099853;28;20613;-84
2021/01/12 00:16:52;;;;;;;46.83;25.38;;;4.80;99.90;;;;;;5099420;28;20280;-86
2021/01/12 00:19:19;;;;;;;37.40;24.55;;;4.80;99.90;;;;;;5100320;28;20197;-83
2021/01/12 00:21:46;;;;;;;40.25;25.05;;;4.80;99.90;;;;;;5099545;28;20212;-86
2021/01/12 00:24:12;;;;;;;40.50;25.92;;;4.90;99.90;;;;;;5100546;28;20197;-84
2021/01/12 00:26:39;;;;;;;41.05;25.85;;;4.90;99.90;;;;;;5093531;28;20202;-85
2021/01/12 00:29:06;;;;;;;33.58;19.42;;;4.90;99.90;;;;;;5095263;28;20215;-84
2021/01/12 00:31:32;;;;;;;34.90;23.77;;;4.90;99.90;;;;;;5079508;28;20201;-84
2021/01/12 00:33:59;;;;;;;38.58;22.00;;;4.90;99.90;;;;;;5078740;28;20197;-84
2021/01/12 00:36:25;;;;;;;39.55;25.45;;;4.90;99.90;;;;;;5078506;28;20197;-85
2021/01/12 00:38:51;;;;;;;38.45;25.40;;;5.00;99.90;;;;;;5081668;28;20202;-85
2021/01/12 00:41:17;;;;;;;39.15;25.83;;;5.00;99.90;;;;;;5083688;28;20300;-86
2021/01/12 00:43:45;;;;;;;33.10;23.10;;;5.00;99.90;;;;;;5084186;28;20201;-84
2021/01/12 00:46:11;;;;;;;40.50;26.00;;;5.00;99.90;;;;;;5082796;28;20217;-85
2021/01/12 00:48:37;;;;;;;39.53;25.00;;;5.00;99.90;;;;;;5083146;28;20667;-85
2021/01/12 00:51:03;;;;;;;38.97;24.15;;;5.00;99.90;;;;;;5083013;28;20218;-83
2021/01/12 00:53:30;;;;;;;34.28;22.23;;;5.10;99.90;;;;;;5083019;28;20648;-84
2021/01/12 00:55:56;;;;;;;37.58;24.90;;;5.10;99.90;;;;;;5082761;28;20214;-84
2021/01/12 00:58:22;;;;;;;39.35;24.00;;;5.10;99.90;;;;;;5083757;28;20185;-84
2021/01/12 01:00:49;;;;;;;35.60;21.30;;;5.10;99.90;;;;;;5099509;28;20227;-85
2021/01/12 01:03:15;;;;;;;41.50;25.55;;;5.20;99.90;;;;;;5103405;28;20242;-86
2021/01/12 01:05:42;;;;;;;30.17;20.85;;;5.20;99.90;;;;;;5104230;28;20235;-86
2021/01/12 01:08:08;;;;;;;37.55;23.30;;;5.20;99.90;;;;;;5103318;28;20198;-85
2021/01/12 01:10:38;;;;;;;37.35;21.58;;;5.20;99.90;;;;;;5102654;28;20221;-85
2021/01/12 01:13:04;;;;;;;31.45;18.50;;;5.20;99.90;;;;;;5102582;28;20197;-84
2021/01/12 01:15:30;;;;;;;30.20;17.67;;;5.20;99.90;;;;;;5102713;28;20217;-84
2021/01/12 01:17:57;;;;;;;35.80;20.67;;;5.20;99.90;;;;;;5101697;28;20656;-85
2021/01/12 01:20:23;;;;;;;32.85;23.27;;;5.20;99.90;;;;;;5102932;28;20201;-84
2021/01/12 01:22:50;;;;;;;30.85;22.02;;;5.20;99.90;;;;;;5102160;28;20198;-84
2021/01/12 01:25:16;;;;;;;31.20;20.83;;;5.20;99.90;;;;;;5101650;28;20220;-85
2021/01/12 01:27:42;;;;;;;31.70;19.65;;;5.20;99.90;;;;;;5093251;28;20212;-85
2021/01/12 01:30:10;;;;;;;31.40;21.20;;;5.20;99.90;;;;;;5081356;28;20213;-85
2021/01/12 01:32:36;;;;;;;27.80;18.25;;;5.20;99.90;;;;;;5080142;28;20744;-85
2021/01/12 01:35:04;;;;;;;30.90;19.88;;;5.20;99.90;;;;;;5081327;28;20691;-85
2021/01/12 01:37:30;;;;;;;26.17;18.55;;;5.20;99.90;;;;;;5080875;28;20663;-87
2021/01/12 01:39:56;;;;;;;28.20;16.80;;;5.20;99.90;;;;;;5081454;28;20197;-86
2021/01/12 01:42:22;;;;;;;26.05;17.25;;;5.20;99.90;;;;;;5080920;28;20197;-85
2021/01/12 01:44:49;;;;;;;30.70;19.15;;;5.20;99.90;;;;;;5080554;28;20229;-85
2021/01/12 01:47:15;;;;;;;26.40;16.52;;;5.20;99.90;;;;;;5080372;28;20202;-86
2021/01/12 01:49:41;;;;;;;19.85;12.40;;;5.20;99.90;;;;;;5080845;28;20255;-85
2021/01/12 01:52:08;;;;;;;24.10;17.92;;;5.20;99.90;;;;;;5080680;28;20257;-83
2021/01/12 01:54:35;;;;;;;25.75;17.05;;;5.20;99.90;;;;;;5083308;28;20222;-86
2021/01/12 01:57:01;;;;;;;29.98;17.20;;;5.20;99.90;;;;;;5082081;28;20247;-81
2021/01/12 01:59:27;;;;;;;28.27;16.48;;;5.20;99.90;;;;;;5092804;28;20181;-87
2021/01/12 02:01:54;;;;;;;22.73;16.45;;;5.20;99.90;;;;;;5102057;28;20201;-85
2021/01/12 02:04:26;;;;;;;20.83;15.43;;;5.20;99.90;;;;;;5101126;28;20213;-85
2021/01/12 02:06:53;;;;;;;22.02;14.68;;;5.20;99.90;;;;;;5101347;28;20193;-85
2021/01/12 02:09:27;;;;;;;21.30;14.55;;;5.20;99.90;;;;;;5100634;28;20571;-84
2021/01/12 02:11:57;;;;;;;20.55;15.00;;;5.20;99.90;;;;;;5101036;28;20205;-85
2021/01/12 02:14:27;;;;;;;24.92;11.68;;;5.20;99.90;;;;;;5100656;28;20217;-86
2021/01/12 02:16:56;;;;;;;22.58;16.27;;;5.20;99.90;;;;;;5100850;28;20213;-85
2021/01/12 02:19:26;;;;;;;23.95;15.00;;;5.20;99.90;;;;;;5100932;28;20196;-85
2021/01/12 02:21:58;;;;;;;16.38;12.50;;;5.20;99.90;;;;;;5100705;28;20192;-86
2021/01/12 02:24:25;;;;;;;28.83;14.40;;;5.20;99.90;;;;;;5100961;28;20425;-86
2021/01/12 02:26:54;;;;;;;22.10;13.60;;;5.20;99.90;;;;;;5092718;28;20578;-86
2021/01/12 02:29:20;;;;;;;15.77;12.90;;;5.30;99.90;;;;;;5091690;28;20578;-86
2021/01/12 02:31:46;;;;;;;20.02;12.35;;;5.30;99.90;;;;;;5099826;28;20201;-86
2021/01/12 02:34:17;;;;;;;18.17;13.98;;;5.20;99.90;;;;;;5100529;28;20208;-85
2021/01/12 02:36:45;;;;;;;17.48;12.75;;;5.30;99.90;;;;;;5099787;28;20185;-84
2021/01/12 02:39:13;;;;;;;15.52;12.13;;;5.30;99.90;;;;;;5099491;28;20204;-84
2021/01/12 02:41:40;;;;;;;21.35;15.25;;;5.20;99.90;;;;;;5099080;28;20205;-85
2021/01/12 02:44:11;;;;;;;20.10;13.70;;;5.20;99.90;;;;;;5099762;28;20196;-86
2021/01/12 02:46:39;;;;;;;20.33;14.60;;;5.20;99.90;;;;;;5099744;28;20177;-85
2021/01/12 02:49:05;;;;;;;17.13;12.90;;;5.20;99.90;;;;;;5099986;28;20251;-81
2021/01/12 02:51:37;;;;;;;21.75;13.93;;;5.20;99.90;;;;;;5099434;28;20228;-85
2021/01/12 02:54:04;;;;;;;17.75;12.45;;;5.20;99.90;;;;;;5100198;28;20253;-84
2021/01/12 02:56:30;;;;;;;21.08;12.35;;;5.20;99.90;;;;;;5094767;28;20250;-84
2021/01/12 02:58:57;;;;;;;20.13;14.75;;;5.20;99.90;;;;;;5088587;28;20189;-85
2021/01/12 03:01:24;;;;;;;18.65;13.43;;;5.20;99.90;;;;;;5099643;28;20204;-86
2021/01/12 03:03:50;;;;;;;18.30;13.88;;;5.20;99.90;;;;;;5099238;28;20200;-86
2021/01/12 03:06:16;;;;;;;22.40;14.98;;;5.20;99.90;;;;;;5099147;28;20219;-84
2021/01/12 03:08:43;;;;;;;21.05;11.60;;;5.20;99.90;;;;;;5098968;28;20197;-84
2021/01/12 03:11:09;;;;;;;20.85;13.55;;;5.20;99.90;;;;;;5099309;28;20217;-84
2021/01/12 03:13:35;;;;;;;18.52;11.95;;;5.20;99.90;;;;;;5098950;28;20189;-86
2021/01/12 03:16:03;;;;;;;12.00;8.90;;;5.20;99.90;;;;;;5096300;22;20245;-78
2021/01/12 03:18:29;;;;;;;17.63;11.52;;;5.20;99.90;;;;;;5041582;28;20262;-79
2021/01/12 03:20:58;;;;;;;10.63;9.02;;;5.20;99.90;;;;;;5052930;28;20610;-79
2021/01/12 03:23:24;;;;;;;15.88;11.95;;;5.20;99.90;;;;;;5055897;28;20190;-79
2021/01/12 03:25:50;;;;;;;16.65;12.65;;;5.20;99.90;;;;;;5055544;28;20229;-80
2021/01/12 03:28:16;;;;;;;22.17;10.25;;;5.30;99.90;;;;;;5064034;28;20248;-79
2021/01/12 03:30:43;;;;;;;15.70;12.25;;;5.30;99.90;;;;;;5071423;28;20209;-79
2021/01/12 03:33:10;;;;;;;14.93;11.70;;;5.30;99.90;;;;;;5075780;28;20205;-79
2021/01/12 03:35:36;;;;;;;14.10;10.80;;;5.30;99.90;;;;;;5076104;28;20726;-80
2021/01/12 03:38:02;;;;;;;14.10;10.57;;;5.40;99.90;;;;;;5081583;28;20205;-80
2021/01/12 03:40:29;;;;;;;17.45;11.75;;;5.30;99.90;;;;;;5077917;28;20544;-80
2021/01/12 03:42:55;;;;;;;16.63;11.85;;;5.40;99.90;;;;;;5076020;28;20248;-80
2021/01/12 03:45:21;;;;;;;12.70;9.90;;;5.40;99.90;;;;;;5075889;28;20194;-80
2021/01/12 03:47:47;;;;;;;15.32;12.00;;;5.40;99.90;;;;;;5075171;28;20293;-81
2021/01/12 03:50:16;;;;;;;11.02;8.80;;;5.50;99.90;;;;;;5075804;28;20212;-81
2021/01/12 03:52:42;;;;;;;12.50;9.18;;;5.50;99.90;;;;;;5075380;28;20197;-80
2021/01/12 03:55:09;;;;;;;15.95;11.90;;;5.50;99.90;;;;;;5075401;28;20236;-80
2021/01/12 03:57:35;;;;;;;19.35;13.02;;;5.50;99.90;;;;;;5068476;28;20190;-80
2021/01/12 04:00:02;;;;;;;14.15;9.90;;;5.60;99.90;;;;;;5064653;28;20199;-80
2021/01/12 04:02:29;;;;;;;15.43;10.27;;;5.60;99.90;;;;;;5066976;28;20251;-79
2021/01/12 04:04:56;;;;;;;12.82;9.90;;;5.60;99.90;;;;;;5075423;28;20428;-80
2021/01/12 04:07:23;;;;;;;16.63;12.27;;;5.60;99.90;;;;;;5074497;28;20217;-79
2021/01/12 04:09:50;;;;;;;15.82;11.25;;;5.60;99.90;;;;;;5074922;28;20218;-80
2021/01/12 04:12:16;;;;;;;16.13;11.65;;;5.70;99.90;;;;;;5074971;28;20232;-79
2021/01/12 04:14:42;;;;;;;18.88;11.35;;;5.70;99.90;;;;;;5073637;28;20601;-79
2021/01/12 04:17:09;;;;;;;16.70;13.07;;;5.70;99.90;;;;;;5074559;28;20220;-80
2021/01/12 04:19:35;;;;;;;12.27;10.55;;;5.70;99.90;;;;;;5074840;28;20639;-79
2021/01/12 04:22:01;;;;;;;15.95;11.52;;;5.70;99.90;;;;;;5074338;28;20197;-79
2021/01/12 04:24:28;;;;;;;18.90;12.40;;;5.80;99.90;;;;;;5074823;28;20194;-81
2021/01/12 04:26:54;;;;;;;13.88;9.63;;;5.80;99.90;;;;;;5074644;28;20588;-82
2021/01/12 04:29:21;;;;;;;15.95;11.70;;;5.80;99.90;;;;;;5074472;28;20205;-80
2021/01/12 04:31:47;;;;;;;12.00;9.68;;;5.80;99.90;;;;;;5065741;28;20585;-80
2021/01/12 04:34:13;;;;;;;14.88;11.77;;;5.90;99.90;;;;;;5054812;28;20660;-81
2021/01/12 04:36:39;;;;;;;15.60;11.50;;;5.90;99.90;;;;;;5053550;28;20217;-80
2021/01/12 04:39:06;;;;;;;11.00;9.50;;;5.90;99.90;;;;;;5054836;28;20195;-80
2021/01/12 04:41:33;;;;;;;16.13;13.15;;;5.90;99.90;;;;;;5054098;28;20198;-80
2021/01/12 04:43:59;;;;;;;15.23;10.82;;;5.90;99.90;;;;;;5054846;28;20701;-80
2021/01/12 04:46:25;;;;;;;13.77;10.75;;;5.90;99.90;;;;;;5053814;28;20730;-79
2021/01/12 04:48:52;;;;;;;15.10;12.40;;;5.90;99.90;;;;;;5053630;28;20687;-78
2021/01/12 04:51:18;;;;;;;16.20;11.00;;;5.90;99.90;;;;;;5053321;28;20222;-77
2021/01/12 04:53:47;;;;;;;9.98;7.75;;;5.90;99.90;;;;;;5054414;28;20198;-80
2021/01/12 04:56:13;;;;;;;15.57;10.13;;;5.90;99.90;;;;;;5052651;28;20583;-79
2021/01/12 04:58:42;;;;;;;14.55;10.10;;;5.90;99.90;;;;;;5053486;28;20203;-79
2021/01/12 05:01:10;;;;;;;15.15;10.90;;;6.00;99.90;;;;;;5062281;28;20190;-79
2021/01/12 05:03:36;;;;;;;15.13;9.25;;;6.00;99.90;;;;;;5054544;28;20206;-79
2021/01/12 05:06:03;;;;;;;11.40;8.07;;;6.00;99.90;;;;;;5053800;28;20241;-79
2021/01/12 05:08:29;;;;;;;16.27;10.52;;;6.00;99.90;;;;;;5054524;28;20203;-79
2021/01/12 05:10:58;;;;;;;13.57;10.70;;;6.00;99.90;;;;;;5054201;28;20222;-79
2021/01/12 05:13:27;;;;;;;15.55;8.90;;;6.00;99.90;;;;;;5054244;28;20668;-79
2021/01/12 05:15:55;;;;;;;11.85;9.43;;;6.00;99.90;;;;;;5053644;28;20227;-79
2021/01/12 05:18:25;;;;;;;11.88;9.15;;;6.00;99.90;;;;;;5054232;28;20201;-79
2021/01/12 05:20:55;;;;;;;8.90;6.90;;;6.00;99.90;;;;;;5054240;28;20199;-79
2021/01/12 05:23:24;;;;;;;9.80;8.80;;;6.00;99.90;;;;;;5054399;28;20190;-76
2021/01/12 05:25:53;;;;;;;11.93;8.52;;;6.10;99.90;;;;;;5056125;28;20237;-80
2021/01/12 05:28:20;;;;;;;7.18;5.80;;;6.10;99.90;;;;;;5057918;28;20207;-79
2021/01/12 05:30:47;;;;;;;10.60;9.10;;;6.10;99.90;;;;;;5065307;28;20249;-80
2021/01/12 05:33:18;;;;;;;8.93;7.95;;;6.10;99.90;;;;;;5069199;28;20190;-80
2021/01/12 05:35:46;;;;;;;9.90;7.57;;;6.10;99.90;;;;;;5077183;28;20214;-80
2021/01/12 05:38:27;;;;;;;11.00;7.95;;;6.20;99.90;;;;;;5078226;28;20194;-80
2021/01/12 05:40:55;;;;;;;10.80;9.07;;;6.20;99.90;;;;;;5077735;28;20185;-79
2021/01/12 05:43:32;;;;;;;11.27;7.70;;;6.20;99.90;;;;;;5077676;28;20663;-78
2021/01/12 05:46:04;;;;;;;9.85;7.95;;;6.20;99.90;;;;;;5077297;28;20216;-80
2021/01/12 05:48:34;;;;;;;13.55;9.52;;;6.20;99.90;;;;;;5077830;28;20183;-80
2021/01/12 05:51:04;;;;;;;9.10;7.97;;;6.20;99.90;;;;;;5077442;28;20743;-80
2021/01/12 05:53:43;;;;;;;12.32;9.05;;;6.20;99.90;;;;;;5077768;28;20194;-79
2021/01/12 05:56:12;;;;;;;9.13;8.13;;;6.30;99.90;;;;;;5077574;28;20214;-80
2021/01/12 05:58:48;;;;;;;15.88;8.85;;;6.20;99.90;;;;;;5077871;28;20191;-80
2021/01/12 06:01:20;;;;;;;9.55;7.47;;;6.20;99.90;;;;;;5067195;28;20187;-80
2021/01/12 06:03:48;;;;;;;9.63;7.95;;;6.30;99.90;;;;;;5073645;28;20659;-80
2021/01/12 06:06:15;;;;;;;12.23;7.90;;;6.30;99.90;;;;;;5077118;28;20213;-79
2021/01/12 06:08:44;;;;;;;9.80;6.80;;;6.30;99.90;;;;;;5078177;28;20194;-80
2021/01/12 06:11:13;;;;;;;9.00;5.90;;;6.30;99.90;;;;;;5077689;28;20886;-81
2021/01/12 06:13:52;;;;;;;11.23;8.25;;;6.40;99.90;;;;;;5078648;28;20198;-80
2021/01/12 06:16:22;;;;;;;10.30;6.55;;;6.40;99.90;;;;;;5077207;28;20225;-81
2021/01/12 06:19:07;;;;;;;9.38;6.85;;;6.40;99.90;;;;;;5077798;28;20341;-81
2021/01/12 06:21:35;;;;;;;9.32;7.30;;;6.40;99.90;;;;;;5077647;28;20178;-81
2021/01/12 06:24:09;;;;;;;9.30;6.80;;;6.40;99.90;;;;;;5078314;28;20655;-81
2021/01/12 06:26:36;;;;;;;10.05;7.43;;;6.40;99.90;;;;;;5077462;28;20210;-80
2021/01/12 06:29:05;;;;;;;9.90;7.32;;;6.50;99.90;;;;;;5075517;28;20194;-82
2021/01/12 06:31:32;;;;;;;8.07;6.57;;;6.50;99.90;;;;;;5063197;28;20202;-80
2021/01/12 06:33:59;;;;;;;6.28;5.60;;;6.50;99.90;;;;;;5058692;28;20191;-81
2021/01/12 06:36:26;;;;;;;6.88;6.13;;;6.50;99.90;;;;;;5055864;28;20215;-81
2021/01/12 06:38:53;;;;;;;9.55;6.80;;;6.60;99.90;;;;;;5055695;28;20202;-80
2021/01/12 06:41:21;;;;;;;7.40;6.50;;;6.60;99.90;;;;;;5056858;28;20260;-80
2021/01/12 06:43:49;;;;;;;5.57;5.07;;;6.60;99.90;;;;;;5056180;28;20686;-81
2021/01/12 06:46:17;;;;;;;6.43;5.20;;;6.60;99.90;;;;;;5056681;28;20222;-80
2021/01/12 06:48:44;;;;;;;10.20;5.30;;;6.60;99.90;;;;;;5056145;28;20673;-80
2021/01/12 06:51:13;;;;;;;6.45;5.40;;;6.60;99.90;;;;;;5056018;28;20214;-80
2021/01/12 06:53:47;;;;;;;7.32;5.55;;;6.70;99.90;;;;;;5056047;28;20194;-80
2021/01/12 06:56:13;;;;;;;5.50;4.68;;;6.70;99.90;;;;;;5056070;28;20305;-77
2021/01/12 06:58:46;;;;;;;4.32;3.92;;;6.70;99.90;;;;;;5057244;28;20261;-81
2021/01/12 07:01:21;;;;;;;8.07;4.82;;;6.80;99.90;;;;;;5065047;28;20197;-80
2021/01/12 07:03:50;;;;;;;5.55;4.85;;;6.80;99.90;;;;;;5073406;28;20198;-81
2021/01/12 07:06:25;;;;;;;6.35;4.78;;;6.80;99.90;;;;;;5076064;28;20217;-80
2021/01/12 07:08:53;;;;;;;5.00;4.50;;;6.80;99.90;;;;;;5076880;28;20197;-81
2021/01/12 07:11:21;;;;;;;9.40;6.10;;;6.80;99.90;;;;;;5076186;28;20288;-76
2021/01/12 07:13:47;;;;;;;7.50;5.95;;;6.80;99.90;;;;;;5076268;28;20266;-80
2021/01/12 07:16:14;;;;;;;6.68;5.80;;;6.80;99.90;;;;;;5075223;28;20279;-77
2021/01/12 07:18:44;;;;;;;8.02;6.60;;;6.80;99.90;;;;;;5076495;28;20200;-79
2021/01/12 07:21:13;;;;;;;7.30;6.22;;;6.80;99.90;;;;;;5079003;28;20190;-80
2021/01/12 07:23:41;;;;;;;8.40;7.28;;;6.80;99.90;;;;;;5078076;28;20280;-79
2021/01/12 07:26:08;;;;;;;7.93;6.80;;;6.80;99.90;;;;;;5078370;28;20218;-79
2021/01/12 07:28:43;;;;;;;7.70;6.90;;;6.90;99.90;;;;;;5078884;28;20185;-80
2021/01/12 07:31:10;;;;;;;7.72;6.68;;;6.90;99.90;;;;;;5063238;28;20278;-79
2021/01/12 07:33:36;;;;;;;9.55;8.40;;;7.00;99.90;;;;;;5064025;28;20231;-79
2021/01/12 07:36:04;;;;;;;9.65;7.80;;;7.00;99.90;;;;;;5058666;28;20214;-78
2021/01/12 07:38:31;;;;;;;8.52;7.25;;;7.00;99.90;;;;;;5056794;28;20198;-78
2021/01/12 07:41:00;;;;;;;8.90;7.63;;;7.00;99.90;;;;;;5057276;28;20191;-78
2021/01/12 07:43:27;;;;;;;8.32;7.43;;;7.00;99.90;;;;;;5057302;28;20627;-79
2021/01/12 07:45:55;;;;;;;11.25;7.40;;;7.00;99.90;;;;;;5056375;28;20227;-78
2021/01/12 07:48:23;;;;;;;10.68;9.57;;;7.00;99.90;;;;;;5058508;28;20204;-80
2021/01/12 07:50:51;;;;;;;9.75;7.65;;;7.10;99.90;;;;;;5057162;28;20297;-79
2021/01/12 07:53:18;;;;;;;9.80;8.10;;;7.00;99.90;;;;;;5056737;28;20199;-78
2021/01/12 07:55:45;;;;;;;9.25;8.30;;;7.00;99.90;;;;;;5056308;28;20234;-80
2021/01/12 07:58:15;;;;;;;9.82;8.18;;;7.00;99.90;;;;;;5056194;28;20275;-80
2021/01/12 08:00:42;;;;;;;10.55;9.35;;;7.00;99.90;;;;;;5066347;28;20196;-78
2021/01/12 08:03:08;;;;;;;14.82;10.10;;;7.00;99.90;;;;;;5074055;28;20610;-79
2021/01/12 08:05:35;;;;;;;14.93;10.02;;;7.10;99.90;;;;;;5077833;28;20694;-80
2021/01/12 08:08:02;;;;;;;13.98;9.20;;;7.10;99.90;;;;;;5075782;28;20270;-80
2021/01/12 08:10:29;;;;;;;13.48;8.02;;;7.10;99.90;;;;;;5076728;28;20356;-80
2021/01/12 08:13:04;;;;;;;12.40;9.70;;;7.10;99.90;;;;;;5077006;28;20194;-80
2021/01/12 08:15:31;;;;;;;11.80;8.93;;;7.10;99.90;;;;;;5076639;28;20267;-80
2021/01/12 08:17:57;;;;;;;14.13;10.70;;;7.10;99.90;;;;;;5076425;28;20738;-80
2021/01/12 08:20:24;;;;;;;11.23;8.38;;;7.10;99.90;;;;;;5077152;28;20203;-80
2021/01/12 08:22:51;;;;;;;13.48;8.93;;;7.20;99.90;;;;;;5076058;28;20247;-80
2021/01/12 08:25:18;;;;;;;10.68;8.68;;;7.20;99.90;;;;;;5077213;28;20593;-79
2021/01/12 08:27:49;;;;;;;10.60;8.38;;;7.20;99.90;;;;;;5076528;28;20196;-80
2021/01/12 08:30:18;;;;;;;9.43;8.23;;;7.20;99.90;;;;;;5069519;28;20302;-79
2021/01/12 08:32:52;;;;;;;9.73;8.70;;;7.20;99.90;;;;;;5068550;28;20196;-80
2021/01/12 08:35:19;;;;;;;14.43;7.40;;;7.20;99.90;;;;;;5076819;28;20242;-78
2021/01/12 08:37:47;;;;;;;12.50;8.77;;;7.20;99.90;;;;;;5075999;28;20280;-80
2021/01/12 08:40:15;;;;;;;10.65;7.55;;;7.30;99.90;;;;;;5076818;28;20203;-79
2021/01/12 08:42:42;;;;;;;9.65;8.10;;;7.30;99.90;;;;;;5076040;28;20619;-80
2021/01/12 08:45:16;;;;;;;14.98;8.70;;;7.30;99.90;;;;;;5077138;28;20202;-79
2021/01/12 08:47:43;;;;;;;12.07;9.20;;;7.40;99.90;;;;;;5075493;28;20200;-79
2021/01/12 08:50:10;;;;;;;19.15;9.50;;;7.30;99.90;;;;;;5075087;28;20699;-79
2021/01/12 08:52:38;;;;;;;8.63;7.22;;;7.30;99.90;;;;;;5074853;28;20679;-80
2021/01/12 08:55:15;;;;;;;14.20;7.68;;;7.30;99.90;;;;;;5074720;28;20202;-79
2021/01/12 08:57:42;;;;;;;11.60;7.15;;;7.40;99.90;;;;;;5075414;28;20286;-78
2021/01/12 09:00:13;;;;;;;12.18;8.20;;;7.30;99.90;;;;;;5068950;28;20207;-80
2021/01/12 09:02:39;;;;;;;17.30;10.68;;;7.40;99.90;;;;;;5070237;28;20194;-79
2021/01/12 09:05:09;;;;;;;14.70;10.77;;;7.40;99.90;;;;;;5078200;28;20673;-79
2021/01/12 09:07:36;;;;;;;20.38;12.77;;;7.40;99.90;;;;;;5078276;28;20222;-80
2021/01/12 09:10:03;;;;;;;16.05;10.80;;;7.40;99.90;;;;;;5078313;28;20269;-79
2021/01/12 09:12:31;;;;;;;13.02;8.88;;;7.40;99.90;;;;;;5078760;28;20225;-79
2021/01/12 09:14:57;;;;;;;14.63;9.30;;;7.40;99.90;;;;;;5079558;28;20272;-78
2021/01/12 09:17:23;;;;;;;17.40;9.77;;;7.40;99.90;;;;;;5111294;22;20814;-85
2021/01/12 09:19:52;;;;;;;11.95;8.10;;;7.40;99.90;;;;;;5050576;28;20202;-87
2021/01/12 09:22:19;;;;;;;12.20;8.45;;;7.50;99.90;;;;;;5056593;28;20199;-86
2021/01/12 09:24:48;;;;;;;12.57;7.35;;;7.50;99.90;;;;;;5064640;28;20194;-84
2021/01/12 09:27:22;;;;;;;14.45;7.90;;;7.50;99.90;;;;;;5066456;28;20222;-86
2021/01/12 09:29:49;;;;;;;10.00;7.00;;;7.60;99.90;;;;;;5064757;28;20225;-87
2021/01/12 09:32:27;;;;;;;5.78;4.75;;;7.60;99.90;;;;;;5046589;28;20286;-86
2021/01/12 09:34:53;;;;;;;9.60;5.90;;;7.70;99.90;;;;;;5045624;28;20597;-87
2021/01/12 09:37:20;;;;;;;10.10;5.38;;;7.60;99.90;;;;;;5046076;28;20609;-85
2021/01/12 09:39:52;;;;;;;6.15;4.43;;;7.60;99.90;;;;;;5045299;28;20199;-88
2021/01/12 09:42:20;;;;;;;7.97;4.72;;;7.70;99.90;;;;;;5045617;28;20179;-88
2021/01/12 09:44:47;;;;;;;7.88;4.60;;;7.70;99.90;;;;;;5044660;28;20217;-88
2021/01/12 09:47:13;;;;;;;5.78;4.38;;;7.70;99.90;;;;;;5044587;28;20219;-87
2021/01/12 09:49:39;;;;;;;11.45;3.72;;;7.70;99.90;;;;;;5046856;28;20199;-86
2021/01/12 09:52:06;;;;;;;3.67;3.38;;;7.70;99.90;;;;;;5044405;28;20573;-87
2021/01/12 09:54:33;;;;;;;4.00;3.45;;;7.70;99.90;;;;;;5045823;28;20200;-89
2021/01/12 09:57:00;;;;;;;4.07;2.75;;;7.60;99.90;;;;;;5046339;28;20211;-86
2021/01/12 09:59:26;;;;;;;3.83;2.63;;;7.60;99.90;;;;;;5049998;28;20199;-86
2021/01/12 10:01:56;;;;;;;3.83;2.97;;;7.60;99.90;;;;;;5079618;28;20247;-89
2021/01/12 10:04:22;;;;;;;4.85;2.90;;;7.60;99.90;;;;;;5065544;28;20564;-87
2021/01/12 10:06:54;;;;;;;6.90;3.60;;;7.50;99.90;;;;;;5066375;28;20318;-87
2021/01/12 10:09:20;;;;;;;4.00;3.30;;;7.40;99.90;;;;;;5065723;28;20234;-87
2021/01/12 10:11:46;;;;;;;5.65;2.95;;;7.40;99.90;;;;;;5064557;28;20236;-87
2021/01/12 10:14:13;;;;;;;4.63;3.60;;;7.40;99.90;;;;;;5064362;28;20196;-85
2021/01/12 10:16:42;;;;;;;4.68;2.78;;;7.40;99.90;;;;;;5064213;28;20199;-88
2021/01/12 10:19:09;;;;;;;5.65;3.40;;;7.40;99.90;;;;;;5064154;28;20191;-86
2021/01/12 10:21:35;;;;;;;4.57;2.95;;;7.40;99.90;;;;;;5064025;28;20223;-86
2021/01/12 10:24:01;;;;;;;3.40;3.10;;;7.40;99.90;;;;;;5063717;28;20242;-87
2021/01/12 10:26:28;;;;;;;5.47;3.10;;;7.40;99.90;;;;;;5064106;28;20195;-86
2021/01/12 10:28:57;;;;;;;4.38;3.58;;;7.40;99.90;;;;;;5063461;28;20237;-89
2021/01/12 10:31:28;;;;;;;5.88;3.30;;;7.50;99.90;;;;;;5069175;28;20226;-85
2021/01/12 10:33:54;;;;;;;4.43;3.40;;;7.40;99.90;;;;;;5066428;28;20192;-86
2021/01/12 10:36:21;;;;;;;3.95;3.42;;;7.40;99.90;;;;;;5063496;28;20198;-86
2021/01/12 10:38:48;;;;;;;3.40;2.75;;;7.40;99.90;;;;;;5063652;28;20215;-86
2021/01/12 10:41:16;;;;;;;7.40;4.10;;;7.30;99.90;;;;;;5062823;28;20191;-85
2021/01/12 10:43:43;;;;;;;5.10;4.57;;;7.20;99.90;;;;;;5062667;28;20201;-85
2021/01/12 10:46:10;;;;;;;4.88;4.43;;;7.20;99.90;;;;;;5061416;28;20206;-86
2021/01/12 10:48:39;;;;;;;4.40;4.00;;;7.20;99.90;;;;;;5062207;28;20220;-88
2021/01/12 10:51:07;;;;;;;5.25;4.72;;;7.20;99.90;;;;;;5062198;28;20226;-85
2021/01/12 10:53:33;;;;;;;6.43;4.90;;;7.10;99.90;;;;;;5062437;28;20195;-86
2021/01/12 10:56:01;;;;;;;5.65;4.60;;;7.20;99.90;;;;;;5061620;28;20198;-85
2021/01/12 10:58:28;;;;;;;4.57;4.10;;;7.10;99.90;;;;;;5062369;28;20230;-86
2021/01/12 11:00:58;;;;;;;5.68;4.22;;;7.10;99.90;;;;;;5069805;28;20292;-85
2021/01/12 11:03:27;;;;;;;5.65;4.45;;;6.90;99.90;;;;;;5061519;28;20195;-87
2021/01/12 11:05:55;;;;;;;3.60;3.25;;;6.90;99.90;;;;;;5060579;28;20195;-88
2021/01/12 11:08:22;;;;;;;4.18;3.53;;;6.90;99.90;;;;;;5060782;28;20359;-88
2021/01/12 11:10:48;;;;;;;4.00;3.70;;;6.80;99.90;;;;;;5060907;28;20825;-87
2021/01/12 11:13:17;;;;;;;4.72;4.32;;;6.70;99.90;;;;;;5061041;28;20289;-85
2021/01/12 11:15:44;;;;;;;4.63;2.78;;;6.80;99.90;;;;;;5059795;28;20194;-81
2021/01/12 11:18:14;;;;;;;3.97;2.10;;;6.70;99.90;;;;;;5059595;28;20704;-87
2021/01/12 11:20:42;;;;;;;2.80;2.53;;;6.70;99.90;;;;;;5060899;28;20400;-85
2021/01/12 11:23:09;;;;;;;4.30;2.05;;;6.60;99.90;;;;;;5060351;28;20198;-86
2021/01/12 11:25:35;;;;;;;3.35;2.47;;;6.60;99.90;;;;;;5059497;28;20217;-87
2021/01/12 11:28:01;;;;;;;2.30;2.10;;;6.60;99.90;;;;;;5060244;28;20214;-86
2021/01/12 11:30:28;;;;;;;2.80;2.50;;;6.60;99.90;;;;;;5073559;28;20206;-85
2021/01/12 11:32:56;;;;;;;1.95;1.20;;;6.70;99.90;;;;;;5073350;28;20194;-87
2021/01/12 11:35:24;;;;;;;2.15;1.73;;;6.80;99.90;;;;;;5079908;28;20201;-87
2021/01/12 11:37:50;;;;;;;2.28;1.10;;;6.80;99.90;;;;;;5077901;28;20305;-84
2021/01/12 11:40:18;;;;;;;3.08;1.45;;;6.80;99.90;;;;;;5077765;28;20247;-85
2021/01/12 11:42:44;;;;;;;1.30;1.20;;;6.80;99.90;;;;;;5051982;28;20191;-84
2021/01/12 11:45:11;;;;;;;2.85;2.10;;;6.80;99.90;;;;;;5053011;28;20206;-86
2021/01/12 11:47:39;;;;;;;2.97;2.03;;;6.80;99.90;;;;;;5058016;28;20223;-85
2021/01/12 11:50:08;;;;;;;4.90;1.88;;;6.90;99.90;;;;;;5056054;28;20191;-84
2021/01/12 11:52:35;;;;;;;2.15;1.60;;;7.00;99.90;;;;;;5057737;28;20258;-86
2021/01/12 11:55:02;;;;;;;3.10;1.60;;;7.00;99.90;;;;;;5062809;28;20695;-84
2021/01/12 11:57:30;;;;;;;5.60;2.53;;;7.10;99.90;;;;;;5055932;28;20689;-86
2021/01/12 11:59:56;;;;;;;2.33;1.90;;;7.00;99.90;;;;;;5056584;28;20663;-87
2021/01/12 12:02:22;;;;;;;5.20;2.17;;;7.10;99.90;;;;;;5057014;28;20187;-83
2021/01/12 12:04:49;;;;;;;2.33;1.75;;;7.10;99.90;;;;;;5056422;28;20194;-85
2021/01/12 12:07:15;;;;;;;3.60;1.42;;;7.10;99.90;;;;;;5057029;28;20221;-86
2021/01/12 12:09:41;;;;;;;1.83;1.23;;;7.20;99.90;;;;;;5057368;28;20210;-86
2021/01/12 12:12:08;;;;;;;1.42;1.17;;;7.30;99.90;;;;;;5056990;28;20561;-87
2021/01/12 12:14:35;;;;;;;2.25;1.10;;;7.30;99.90;;;;;;5056227;28;20202;-86
2021/01/12 12:17:01;;;;;;;1.92;0.90;;;7.20;99.90;;;;;;5055971;28;20220;-83
2021/01/12 12:19:30;;;;;;;1.88;0.90;;;7.10;99.90;;;;;;5056286;28;20182;-86
2021/01/12 12:21:57;;;;;;;3.67;1.02;;;7.00;99.90;;;;;;5056275;28;20198;-86
2021/01/12 12:24:25;;;;;;;0.88;0.88;;;6.90;99.90;;;;;;5062250;28;20186;-83
2021/01/12 12:26:53;;;;;;;2.40;1.10;;;6.80;99.90;;;;;;5056443;28;20213;-84
2021/01/12 12:29:20;;;;;;;1.83;1.67;;;6.80;99.90;;;;;;5057204;28;20244;-84
2021/01/12 12:31:53;;;;;;;3.95;1.02;;;6.80;99.90;;;;;;5057804;28;20237;-85
2021/01/12 12:34:20;;;;;;;1.42;1.05;;;6.80;99.90;;;;;;5064628;28;20194;-85
2021/01/12 12:36:46;;;;;;;0.90;0.73;;;6.80;99.90;;;;;;5061078;28;20675;-86
2021/01/12 12:39:12;;;;;;;0.70;0.70;;;6.70;99.90;;;;;;5059970;28;20194;-85
2021/01/12 12:41:39;;;;;;;1.50;0.80;;;6.60;99.90;;;;;;5068020;28;20587;-85
2021/01/12 12:44:06;;;;;;;0.70;0.70;;;6.60;99.90;;;;;;5060668;28;20201;-85
2021/01/12 12:46:32;;;;;;;6.30;0.77;;;6.60;99.90;;;;;;5061751;28;20201;-84
2021/01/12 12:48:59;;;;;;;2.20;0.80;;;6.60;99.90;;;;;;5063858;28;20554;-85
2021/01/12 12:51:27;;;;;;;0.60;0.60;;;6.70;99.90;;;;;;5062557;28;20737;-85
2021/01/12 12:53:55;;;;;;;2.17;1.40;;;6.60;99.90;;;;;;5065602;28;20221;-85